Time;durP1;ratioP1;P1;durP2;ratioP2;P2;SDS_P1;SDS_P2;PMS_P1;PMS_P2;Temp;Humidity;BMP_temperature;BMP_pressure;BME280_temperature;BME280_humidity;BME280_pressure;Samples;Min_cycle;Max_cycle;Signal;HPM_P1;HPM_P2
2022/08/06 00:00:22;;;;;;;0.40;0.40;;;20.60;45.60;20.10;96580.00;;;;5115157;28;20292;-50
2022/08/06 00:02:49;;;;;;;0.50;0.50;;;20.60;45.00;20.00;96581.00;;;;5115255;28;20292;-48
2022/08/06 00:05:16;;;;;;;3.60;1.00;;;20.50;45.10;20.10;96578.00;;;;5113727;28;20207;-48
2022/08/06 00:07:43;;;;;;;0.40;0.40;;;20.60;44.40;20.00;96582.00;;;;5097835;28;20198;-49
2022/08/06 00:10:09;;;;;;;0.57;0.57;;;20.50;44.10;20.10;96593.00;;;;5114569;28;20243;-49
2022/08/06 00:12:36;;;;;;;0.40;0.40;;;20.60;44.20;20.00;96588.00;;;;5114246;28;20187;-49
2022/08/06 00:15:06;;;;;;;0.40;0.40;;;20.60;43.80;20.00;96583.00;;;;5113594;28;20741;-49
2022/08/06 00:17:32;;;;;;;0.40;0.40;;;20.50;44.30;20.10;96581.00;;;;5113384;28;20244;-49
2022/08/06 00:20:01;;;;;;;0.57;0.57;;;20.60;43.90;20.10;96576.00;;;;5113423;28;20217;-49
2022/08/06 00:22:28;;;;;;;0.53;0.53;;;20.60;43.30;20.00;96576.00;;;;5113454;28;20271;-49
2022/08/06 00:24:55;;;;;;;0.70;0.70;;;20.50;43.90;19.90;96580.00;;;;5113335;28;20213;-49
2022/08/06 00:27:21;;;;;;;0.53;0.53;;;20.40;43.60;19.80;96580.00;;;;5113250;28;20201;-50
2022/08/06 00:29:49;;;;;;;0.60;0.60;;;20.40;44.10;19.90;96576.00;;;;5113599;28;20740;-50
2022/08/06 00:32:16;;;;;;;0.53;0.53;;;20.40;43.90;20.00;96575.00;;;;5113229;28;20221;-50
2022/08/06 00:34:42;;;;;;;0.67;0.67;;;20.40;43.90;19.90;96584.00;;;;5116215;28;20217;-50
2022/08/06 00:37:09;;;;;;;0.60;0.60;;;20.40;43.60;19.90;96589.00;;;;5116903;28;20283;-50
2022/08/06 00:39:36;;;;;;;0.40;0.40;;;20.40;44.40;19.90;96582.00;;;;5117051;28;20268;-50
2022/08/06 00:42:03;;;;;;;0.50;0.50;;;20.40;44.00;19.80;96586.00;;;;5116551;28;20194;-49
2022/08/06 00:44:30;;;;;;;0.40;0.40;;;20.30;43.90;19.80;96588.00;;;;5116698;28;20280;-48
2022/08/06 00:46:56;;;;;;;10.60;1.10;;;20.30;44.10;19.80;96592.00;;;;5116622;28;20223;-49
2022/08/06 00:49:23;;;;;;;0.67;0.67;;;20.30;43.90;19.80;96589.00;;;;5116559;28;20212;-49
2022/08/06 00:51:49;;;;;;;0.57;0.57;;;20.40;43.30;19.80;96590.00;;;;5116501;28;20398;-49
2022/08/06 00:54:16;;;;;;;1.10;0.70;;;20.30;43.60;19.80;96593.00;;;;5116359;28;20286;-49
2022/08/06 00:56:43;;;;;;;3.33;0.43;;;20.30;43.50;19.80;96594.00;;;;5098495;28;20267;-49
2022/08/06 00:59:09;;;;;;;0.43;0.43;;;20.30;43.90;19.80;96590.00;;;;5116194;28;20247;-48
2022/08/06 01:01:38;;;;;;;0.50;0.50;;;20.30;43.70;19.80;96598.00;;;;5116339;28;20705;-49
2022/08/06 01:04:05;;;;;;;0.30;0.30;;;20.30;43.80;19.80;96604.00;;;;5116198;28;20197;-50
2022/08/06 01:06:31;;;;;;;0.40;0.40;;;20.30;43.70;19.60;96608.00;;;;5116204;28;20751;-49
2022/08/06 01:09:00;;;;;;;0.60;0.60;;;20.20;43.60;19.70;96613.00;;;;5116209;28;20194;-49
2022/08/06 01:11:26;;;;;;;0.40;0.40;;;20.20;44.00;19.50;96613.00;;;;5116151;28;20186;-49
2022/08/06 01:13:56;;;;;;;0.40;0.40;;;20.10;44.20;19.60;96614.00;;;;5116099;28;20205;-48
2022/08/06 01:16:32;;;;;;;0.50;0.50;;;20.10;44.40;19.60;96611.00;;;;5098111;28;20312;-49
2022/08/06 01:19:19;;;;;;;0.50;0.50;;;20.10;44.00;19.50;96611.00;;;;5098142;28;20248;-49
2022/08/06 01:22:03;;;;;;;0.40;0.40;;;20.10;44.30;19.50;96609.00;;;;5116008;28;20226;-49
2022/08/06 01:25:18;;;;;;;0.63;0.63;;;20.10;44.00;19.50;96611.00;;;;5098031;28;20265;-49
2022/08/06 01:27:52;;;;;;;0.40;0.40;;;20.00;44.10;19.50;96614.00;;;;5108034;28;20238;-49
2022/08/06 01:30:23;;;;;;;0.70;0.70;;;20.00;44.00;19.60;96613.00;;;;5115923;28;20241;-49
2022/08/06 01:33:00;;;;;;;0.40;0.40;;;20.00;44.00;19.50;96611.00;;;;5115864;28;20222;-49
2022/08/06 01:35:37;;;;;;;0.40;0.40;;;20.00;43.90;19.60;96598.00;;;;5115835;28;20284;-49
2022/08/06 01:38:09;;;;;;;3.87;1.13;;;20.10;43.90;19.60;96613.00;;;;5115620;28;20274;-49
2022/08/06 01:40:43;;;;;;;0.40;0.40;;;20.00;43.50;19.60;96612.00;;;;5115736;28;20201;-49
2022/08/06 01:43:16;;;;;;;1.17;1.07;;;20.10;43.70;19.50;96604.00;;;;5115723;28;20208;-50
2022/08/06 01:45:44;;;;;;;0.80;0.80;;;20.10;43.30;19.50;96608.00;;;;5114595;28;20198;-49
2022/08/06 01:48:16;;;;;;;0.50;0.50;;;20.00;43.30;19.50;96607.00;;;;5097663;28;20194;-49
2022/08/06 01:50:49;;;;;;;0.50;0.50;;;20.10;43.40;19.50;96609.00;;;;5115487;28;20213;-49
2022/08/06 01:53:25;;;;;;;0.40;0.40;;;20.00;43.10;19.40;96605.00;;;;5097628;28;20227;-49
2022/08/06 01:55:59;;;;;;;0.50;0.50;;;20.00;43.30;19.40;96613.00;;;;5115409;28;20308;-49
2022/08/06 01:58:31;;;;;;;0.70;0.70;;;20.00;43.20;19.30;96612.00;;;;5115440;28;20213;-49
2022/08/06 02:01:02;;;;;;;0.60;0.60;;;19.90;43.70;19.40;96608.00;;;;5115388;28;20236;-49
2022/08/06 02:03:33;;;;;;;0.80;0.80;;;19.90;43.70;19.30;96605.00;;;;5115434;28;20228;-48
2022/08/06 02:06:01;;;;;;;0.50;0.50;;;19.90;44.00;19.30;96607.00;;;;5115248;28;20318;-49
2022/08/06 02:08:34;;;;;;;0.50;0.50;;;19.90;44.30;19.30;96594.00;;;;5115238;28;20347;-49
2022/08/06 02:11:04;;;;;;;0.70;0.70;;;19.90;44.50;19.30;96602.00;;;;5115143;28;20225;-48
2022/08/06 02:13:35;;;;;;;0.60;0.60;;;19.80;44.30;19.30;96605.00;;;;5115191;28;20201;-55
2022/08/06 02:16:05;;;;;;;1.00;0.97;;;19.80;44.50;19.20;96609.00;;;;5115183;28;20229;-48
2022/08/06 02:18:37;;;;;;;0.60;0.60;;;19.80;44.70;19.20;96613.00;;;;5114921;28;20309;-49
2022/08/06 02:21:09;;;;;;;0.40;0.40;;;19.80;45.00;19.00;96608.00;;;;5097110;28;20212;-50
2022/08/06 02:23:37;;;;;;;0.50;0.50;;;19.60;45.40;19.10;96619.00;;;;5115012;28;20332;-50
2022/08/06 02:26:05;;;;;;;14.00;0.97;;;19.60;46.00;19.10;96618.00;;;;5115136;28;20194;-49
2022/08/06 02:28:34;;;;;;;0.40;0.40;;;19.60;46.30;19.10;96620.00;;;;5114942;28;20217;-57
2022/08/06 02:31:01;;;;;;;0.70;0.70;;;19.60;46.30;19.20;96622.00;;;;5114869;28;20281;-50
2022/08/06 02:33:28;;;;;;;0.73;0.73;;;19.70;45.90;19.20;96630.00;;;;5114778;28;20237;-50
2022/08/06 02:36:04;;;;;;;0.60;0.60;;;19.70;45.90;19.10;96624.00;;;;5114891;28;20201;-49
2022/08/06 02:38:39;;;;;;;0.40;0.40;;;19.70;45.80;19.00;96623.00;;;;5096916;28;20312;-49
2022/08/06 02:41:18;;;;;;;0.60;0.60;;;19.60;46.10;19.00;96614.00;;;;5114820;28;20182;-48
2022/08/06 02:43:53;;;;;;;1.07;1.07;;;19.60;46.40;19.00;96616.00;;;;5114809;28;20209;-48
2022/08/06 02:46:26;;;;;;;0.43;0.43;;;19.60;46.30;19.00;96616.00;;;;5114615;28;20721;-48
2022/08/06 02:49:03;;;;;;;1.20;1.13;;;19.60;46.50;18.80;96622.00;;;;5114796;28;20339;-48
2022/08/06 02:51:38;;;;;;;0.50;0.50;;;19.40;46.50;18.80;96614.00;;;;5114513;28;20304;-47
2022/08/06 02:54:12;;;;;;;0.50;0.50;;;19.40;47.00;18.70;96618.00;;;;5114503;28;20240;-48
2022/08/06 02:56:47;;;;;;;0.43;0.43;;;19.30;47.00;18.70;96606.00;;;;5114425;28;20221;-48
2022/08/06 02:59:26;;;;;;;0.50;0.50;;;19.20;47.30;18.70;96614.00;;;;5114384;28;20270;-49
2022/08/06 03:01:58;;;;;;;0.50;0.50;;;19.20;47.30;18.60;96614.00;;;;5096449;28;20229;-49
2022/08/06 03:04:28;;;;;;;0.50;0.50;;;19.20;47.60;18.60;96622.00;;;;5114355;28;20288;-49
2022/08/06 03:06:57;;;;;;;0.57;0.47;;;19.20;47.80;18.60;96625.00;;;;5114279;28;20255;-48
2022/08/06 03:09:25;;;;;;;0.60;0.60;;;19.20;47.70;18.60;96630.00;;;;5114432;28;20263;-49
2022/08/06 03:11:54;;;;;;;0.70;0.70;;;19.20;48.10;18.70;96635.00;;;;5114453;28;20190;-50
2022/08/06 03:14:23;;;;;;;0.50;0.50;;;19.20;47.90;18.60;96629.00;;;;5114463;28;20198;-48
2022/08/06 03:16:51;;;;;;;0.37;0.37;;;19.20;48.10;18.60;96635.00;;;;5114401;28;20209;-50
2022/08/06 03:19:20;;;;;;;0.40;0.40;;;19.20;48.20;18.60;96631.00;;;;5114264;28;20298;-54
2022/08/06 03:21:52;;;;;;;0.60;0.60;;;19.10;48.20;18.60;96639.00;;;;5114300;28;20202;-48
2022/08/06 03:24:21;;;;;;;2.53;1.17;;;19.20;48.20;18.60;96636.00;;;;5096214;28;20286;-49
2022/08/06 03:26:51;;;;;;;0.40;0.40;;;19.10;48.20;18.50;96631.00;;;;5114201;28;20198;-49
2022/08/06 03:29:21;;;;;;;0.60;0.60;;;19.10;48.50;18.50;96638.00;;;;5114008;28;20304;-51
2022/08/06 03:31:50;;;;;;;0.63;0.63;;;19.10;48.40;18.60;96634.00;;;;5096089;28;20212;-52
2022/08/06 03:34:17;;;;;;;5.53;1.00;;;19.10;48.80;18.60;96638.00;;;;5114312;28;20202;-54
2022/08/06 03:36:44;;;;;;;0.90;0.90;;;19.10;48.70;18.70;96643.00;;;;5114184;28;20198;-49
2022/08/06 03:39:13;;;;;;;0.50;0.50;;;19.20;48.40;18.50;96650.00;;;;5114011;28;20218;-49
2022/08/06 03:41:41;;;;;;;0.60;0.60;;;19.20;48.50;18.50;96654.00;;;;5096222;28;20233;-49
2022/08/06 03:44:08;;;;;;;7.33;0.87;;;19.10;49.00;18.40;96660.00;;;;5113820;28;20216;-48
2022/08/06 03:46:42;;;;;;;0.70;0.70;;;19.00;49.00;18.40;96650.00;;;;5113837;28;20256;-50
2022/08/06 03:49:21;;;;;;;0.77;0.77;;;19.00;49.30;18.30;96653.00;;;;5113973;28;20197;-49
2022/08/06 03:51:53;;;;;;;0.50;0.50;;;18.90;50.10;18.50;96660.00;;;;5113714;28;20222;-51
2022/08/06 03:54:25;;;;;;;0.40;0.40;;;19.00;49.40;18.50;96655.00;;;;5113739;28;20201;-50
2022/08/06 03:56:57;;;;;;;0.40;0.40;;;19.00;49.00;18.40;96654.00;;;;5113946;28;20277;-49
2022/08/06 03:59:28;;;;;;;0.77;0.77;;;19.00;49.30;18.40;96653.00;;;;5113605;28;20240;-48
2022/08/06 04:01:58;;;;;;;0.40;0.40;;;19.00;49.30;18.40;96651.00;;;;5113758;28;20209;-47
2022/08/06 04:04:26;;;;;;;0.50;0.50;;;;;18.30;96644.00;;;;5113790;28;20205;-48
2022/08/06 04:06:54;;;;;;;0.63;0.63;;;18.90;48.90;18.30;96637.00;;;;5113760;28;20194;-49
2022/08/06 04:09:23;;;;;;;0.60;0.60;;;18.90;49.60;18.30;96647.00;;;;5115949;28;20230;-48
2022/08/06 04:11:50;;;;;;;0.40;0.40;;;18.90;49.80;18.20;96644.00;;;;5117201;28;20194;-48
2022/08/06 04:14:17;;;;;;;0.40;0.40;;;18.80;49.70;18.20;96650.00;;;;5117050;28;20283;-49
2022/08/06 04:16:44;;;;;;;0.50;0.50;;;18.80;49.90;18.20;96651.00;;;;5117101;28;20281;-49
2022/08/06 04:19:13;;;;;;;0.50;0.50;;;18.80;49.90;18.20;96653.00;;;;5116923;28;20225;-49
2022/08/06 04:21:40;;;;;;;0.60;0.60;;;18.80;50.00;18.20;96659.00;;;;5098993;28;20208;-48
2022/08/06 04:24:07;;;;;;;0.40;0.40;;;18.80;50.20;18.20;96666.00;;;;5116912;28;20529;-49
2022/08/06 04:26:37;;;;;;;0.40;0.40;;;18.80;50.30;18.10;96662.00;;;;5116907;28;20198;-49
2022/08/06 04:29:11;;;;;;;1.73;0.97;;;18.80;50.30;18.10;96661.00;;;;5116892;28;20194;-49
2022/08/06 04:31:40;;;;;;;0.70;0.70;;;18.70;50.60;18.00;96670.00;;;;5116744;28;20221;-49
2022/08/06 04:34:09;;;;;;;0.50;0.50;;;18.60;50.90;18.10;96670.00;;;;5116715;28;20218;-49
2022/08/06 04:36:37;;;;;;;0.40;0.40;;;18.70;50.90;18.10;96674.00;;;;5116715;28;20225;-48
2022/08/06 04:39:04;;;;;;;0.60;0.60;;;18.70;50.80;18.10;96679.00;;;;5098806;28;20267;-48
2022/08/06 04:41:32;;;;;;;4.63;0.90;;;18.70;51.20;18.10;96685.00;;;;5116690;28;20392;-49
2022/08/06 04:43:59;;;;;;;0.40;0.40;;;18.70;51.20;18.10;96692.00;;;;5116690;28;20333;-50
2022/08/06 04:46:26;;;;;;;0.40;0.40;;;18.70;51.20;18.10;96689.00;;;;5116733;28;20282;-49
2022/08/06 04:48:53;;;;;;;0.60;0.60;;;18.60;51.20;18.20;96692.00;;;;5098532;28;20194;-49
2022/08/06 04:51:23;;;;;;;0.30;0.30;;;18.80;51.40;18.20;96694.00;;;;5116482;28;20548;-49
2022/08/06 04:53:52;;;;;;;0.70;0.70;;;18.70;50.80;18.20;96689.00;;;;5116394;28;20229;-48
2022/08/06 04:56:18;;;;;;;0.60;0.60;;;18.80;51.10;18.20;96697.00;;;;5116701;28;20644;-48
2022/08/06 04:58:45;;;;;;;0.60;0.60;;;18.80;51.00;18.20;96689.00;;;;5116331;28;20304;-48
2022/08/06 05:01:11;;;;;;;0.40;0.40;;;18.80;51.90;18.20;96695.00;;;;5116324;28;20255;-47
2022/08/06 05:03:38;;;;;;;0.97;0.97;;;18.70;51.20;18.10;96695.00;;;;5116336;28;20272;-48
2022/08/06 05:06:13;;;;;;;0.47;0.47;;;18.70;51.60;18.20;96696.00;;;;5098420;28;20205;-49
2022/08/06 05:08:44;;;;;;;0.50;0.50;;;18.70;51.40;18.10;96710.00;;;;5116266;28;20497;-49
2022/08/06 05:11:22;;;;;;;0.60;0.60;;;18.70;51.60;18.20;96708.00;;;;5116225;28;20202;-48
2022/08/06 05:13:58;;;;;;;0.83;0.83;;;18.70;51.50;18.30;96710.00;;;;5116160;28;20637;-49
2022/08/06 05:16:26;;;;;;;0.40;0.40;;;18.80;51.50;18.30;96716.00;;;;5116261;28;20222;-49
2022/08/06 05:18:59;;;;;;;0.40;0.40;;;18.80;51.20;18.30;96720.00;;;;5116036;28;20222;-49
2022/08/06 05:21:33;;;;;;;0.50;0.50;;;18.80;50.80;18.40;96719.00;;;;5115932;28;20720;-49
2022/08/06 05:24:02;;;;;;;0.47;0.47;;;18.90;51.20;18.50;96722.00;;;;5116100;28;20189;-49
2022/08/06 05:26:30;;;;;;;0.40;0.40;;;19.00;50.60;18.40;96718.00;;;;5115865;28;20270;-53
2022/08/06 05:28:57;;;;;;;0.50;0.50;;;19.00;50.70;18.40;96722.00;;;;5116041;28;20196;-50
2022/08/06 05:31:32;;;;;;;0.43;0.43;;;18.90;50.60;18.40;96718.00;;;;5115841;28;20245;-49
2022/08/06 05:33:58;;;;;;;0.67;0.67;;;18.90;50.90;18.50;96727.00;;;;5115734;28;20200;-49
2022/08/06 05:36:27;;;;;;;0.60;0.60;;;19.00;50.90;18.60;96729.00;;;;5115741;28;20331;-49
2022/08/06 05:38:56;;;;;;;1.83;1.73;;;19.10;50.70;18.50;96705.00;;;;5097799;28;20672;-54
2022/08/06 05:41:22;;;;;;;0.60;0.60;;;19.10;50.60;18.60;96728.00;;;;5115819;28;20206;-50
2022/08/06 05:43:49;;;;;;;0.60;0.60;;;19.10;50.80;18.60;96724.00;;;;5115708;28;20222;-55
2022/08/06 05:46:21;;;;;;;0.60;0.60;;;19.10;50.40;18.50;96719.00;;;;5115660;28;20625;-49
2022/08/06 05:49:00;;;;;;;0.60;0.60;;;19.10;50.40;18.50;96710.00;;;;5115492;28;20282;-49
2022/08/06 05:51:40;;;;;;;0.40;0.40;;;19.00;50.50;18.50;96731.00;;;;5097743;28;20537;-49
2022/08/06 05:54:18;;;;;;;0.50;0.50;;;19.00;50.80;18.70;96728.00;;;;5115289;28;20250;-48
2022/08/06 05:56:48;;;;;;;13.20;0.93;;;19.10;50.60;18.70;96726.00;;;;5115313;28;20281;-50
2022/08/06 05:59:26;;;;;;;0.53;0.53;;;19.20;50.20;18.80;96731.00;;;;5115225;28;20254;-50
2022/08/06 06:01:55;;;;;;;0.57;0.57;;;19.20;50.30;18.60;96730.00;;;;5115191;28;20331;-49
2022/08/06 06:04:23;;;;;;;0.50;0.50;;;19.20;50.30;18.70;96741.00;;;;5115098;28;20253;-49
2022/08/06 06:06:51;;;;;;;0.70;0.70;;;19.10;49.60;18.50;96751.00;;;;5097284;28;20324;-49
2022/08/06 06:09:18;;;;;;;0.60;0.60;;;;;18.60;96745.00;;;;5097193;28;20198;-49
2022/08/06 06:11:48;;;;;;;0.47;0.47;;;;;18.60;96744.00;;;;5114958;28;20671;-49
2022/08/06 06:14:33;;;;;;;0.50;0.50;;;19.10;66.60;18.60;96751.00;;;;5115024;28;20205;-49
2022/08/06 06:17:30;;;;;;;0.40;0.40;;;19.10;50.80;18.70;96752.00;;;;5114764;28;20252;-49
2022/08/06 06:20:11;;;;;;;0.50;0.50;;;19.20;50.70;18.60;96736.00;;;;5114952;28;20396;-49
2022/08/06 06:22:50;;;;;;;0.40;0.40;;;19.10;50.80;18.50;96753.00;;;;5114829;28;20286;-49
2022/08/06 06:25:23;;;;;;;0.50;0.50;;;19.10;50.90;18.50;96762.00;;;;5097042;28;20229;-49
2022/08/06 06:27:59;;;;;;;0.77;0.77;;;19.10;51.00;18.70;96757.00;;;;5114797;28;20241;-49
2022/08/06 06:30:38;;;;;;;1.40;0.50;;;19.10;51.00;18.60;96764.00;;;;5114981;28;20566;-48
2022/08/06 06:33:15;;;;;;;0.50;0.50;;;;;18.60;96764.00;;;;5114727;28;20294;-49
2022/08/06 06:35:48;;;;;;;0.40;0.40;;;;;18.60;96774.00;;;;5114696;28;20214;-49
2022/08/06 06:38:38;;;;;;;0.70;0.70;;;19.10;49.70;18.70;96764.00;;;;5114709;28;20214;-49
2022/08/06 06:44:15;;;;;;;0.40;0.40;;;19.30;50.60;18.90;96769.00;;;;5114087;28;20341;-47
2022/08/06 06:46:51;;;;;;;0.53;0.53;;;19.50;49.50;19.10;96763.00;;;;5114545;28;20217;-49
2022/08/06 06:49:27;;;;;;;0.60;0.60;;;19.60;49.20;19.20;96764.00;;;;5114569;28;20648;-48
2022/08/06 06:52:00;;;;;;;0.80;0.80;;;;;19.40;96772.00;;;;5115251;28;20288;-48
2022/08/06 06:54:34;;;;;;;0.93;0.93;;;;;19.40;96774.00;;;;5114390;28;20557;-48
2022/08/06 06:57:01;;;;;;;0.50;0.50;;;;;19.30;96763.00;;;;5114406;28;20225;-49
2022/08/06 06:59:34;;;;;;;0.67;0.67;;;19.80;76.80;19.50;96772.00;;;;5114718;28;20226;-50
2022/08/06 07:02:06;;;;;;;0.70;0.70;;;19.90;49.30;19.70;96759.00;;;;5114634;28;20248;-55
2022/08/06 07:04:35;;;;;;;0.70;0.70;;;20.10;48.70;19.80;96775.00;;;;5114891;28;20256;-49
2022/08/06 07:07:04;;;;;;;0.83;0.83;;;20.20;47.80;19.90;96772.00;;;;5114599;28;20296;-53
2022/08/06 07:09:34;;;;;;;0.90;0.90;;;20.30;48.00;19.90;96779.00;;;;5114538;28;20375;-48
2022/08/06 07:12:03;;;;;;;0.40;0.40;;;20.30;47.50;19.90;96762.00;;;;5114288;28;20221;-50
2022/08/06 07:14:34;;;;;;;0.43;0.43;;;20.30;47.60;19.90;96765.00;;;;5114186;28;20330;-50
2022/08/06 07:17:03;;;;;;;0.73;0.73;;;20.30;47.40;19.70;96774.00;;;;5114067;28;20228;-49
2022/08/06 07:19:32;;;;;;;0.53;0.53;;;20.20;48.20;20.00;96775.00;;;;5114060;28;20220;-50
2022/08/06 07:21:59;;;;;;;0.70;0.70;;;20.30;48.00;20.00;96776.00;;;;5114001;28;20260;-50
2022/08/06 07:24:31;;;;;;;0.50;0.50;;;20.40;47.10;19.80;96773.00;;;;5114252;28;20652;-49
2022/08/06 07:26:59;;;;;;;0.50;0.50;;;20.30;46.80;19.80;96781.00;;;;5113962;28;20612;-50
2022/08/06 07:29:28;;;;;;;0.60;0.60;;;20.30;47.60;19.70;96772.00;;;;5114279;28;20186;-49
2022/08/06 07:31:56;;;;;;;0.70;0.70;;;20.20;47.00;19.60;96755.00;;;;5114025;28;20227;-50
2022/08/06 07:34:25;;;;;;;0.40;0.40;;;20.10;47.50;19.70;96774.00;;;;5114046;28;20198;-48
2022/08/06 07:36:54;;;;;;;0.60;0.60;;;20.10;47.30;19.70;96769.00;;;;5114206;28;20259;-49
2022/08/06 07:39:27;;;;;;;1.90;1.37;;;20.20;47.40;19.80;96761.00;;;;5114486;28;20229;-50
2022/08/06 07:42:00;;;;;;;0.47;0.47;;;20.20;46.80;19.90;96762.00;;;;5114014;28;20299;-48
2022/08/06 07:44:29;;;;;;;0.50;0.50;;;20.30;46.30;19.90;96767.00;;;;5098832;28;20197;-50
2022/08/06 07:47:00;;;;;;;2.73;1.20;;;20.30;45.40;19.80;96776.00;;;;5099925;28;20197;-54
2022/08/06 07:49:40;;;;;;;0.97;0.97;;;20.20;45.70;20.00;96769.00;;;;5100007;28;20510;-54
2022/08/06 07:52:15;;;;;;;10.13;1.00;;;20.40;45.50;20.30;96779.00;;;;5117958;28;20208;-51
2022/08/06 07:54:43;;;;;;;0.40;0.40;;;;;20.30;96770.00;;;;5118127;28;20202;-51
2022/08/06 07:57:14;;;;;;;0.60;0.60;;;20.60;62.30;20.30;96776.00;;;;5117478;28;20198;-57
2022/08/06 07:59:41;;;;;;;1.03;1.03;;;20.80;41.90;20.30;96780.00;;;;5117903;28;20241;-51
2022/08/06 08:02:10;;;;;;;0.70;0.70;;;20.80;43.40;20.50;96771.00;;;;5117532;28;20285;-50
2022/08/06 08:07:24;;;;;;;0.40;0.40;;;;;20.90;96777.00;;;;5099230;28;20224;-49
2022/08/06 08:09:51;;;;;;;1.40;1.07;;;21.30;40.80;21.00;96774.00;;;;5117265;28;20702;-49
2022/08/06 08:12:20;;;;;;;0.53;0.53;;;21.30;41.40;21.30;96786.00;;;;5117286;28;20229;-49
2022/08/06 08:14:48;;;;;;;0.70;0.70;;;;;21.40;96785.00;;;;5118543;28;20322;-50
2022/08/06 08:17:17;;;;;;;0.40;0.40;;;;;21.40;96777.00;;;;5123015;28;20270;-51
2022/08/06 08:19:47;;;;;;;0.50;0.50;;;21.80;37.60;21.50;96776.00;;;;5099656;28;20246;-53
2022/08/06 08:22:17;;;;;;;0.60;0.60;;;21.80;38.40;21.80;96779.00;;;;5117024;28;20194;-50
2022/08/06 08:24:46;;;;;;;0.40;0.40;;;;;21.90;96772.00;;;;5116919;28;20691;-50
2022/08/06 08:27:12;;;;;;;0.67;0.67;;;22.30;37.10;22.00;96780.00;;;;5116815;28;20198;-51
2022/08/06 08:29:42;;;;;;;0.57;0.57;;;22.40;36.80;21.70;96779.00;;;;5116814;28;20230;-51
2022/08/06 08:32:09;;;;;;;0.43;0.43;;;22.10;37.20;21.80;96769.00;;;;5116861;28;20586;-50
2022/08/06 08:34:36;;;;;;;0.70;0.70;;;22.20;37.70;22.00;96780.00;;;;5116749;28;20219;-50
2022/08/06 08:37:04;;;;;;;0.73;0.73;;;22.30;37.20;22.20;96775.00;;;;5116699;28;20220;-48
2022/08/06 08:39:31;;;;;;;0.50;0.50;;;;;21.90;96774.00;;;;5116408;28;20754;-48
2022/08/06 08:42:09;;;;;;;0.53;0.53;;;22.30;48.50;22.10;96777.00;;;;5116634;28;20190;-47
2022/08/06 08:44:36;;;;;;;0.50;0.50;;;;;22.00;96775.00;;;;5116475;28;20295;-50
2022/08/06 08:47:04;;;;;;;1.08;1.08;;;22.40;35.30;22.20;96778.00;;;;5116649;28;20197;-50
2022/08/06 08:49:38;;;;;;;0.60;0.60;;;22.50;36.20;22.10;96776.00;;;;5098782;28;20202;-49
2022/08/06 08:52:13;;;;;;;0.50;0.50;;;22.50;35.90;22.20;96777.00;;;;5116538;28;20241;-49
2022/08/06 08:54:46;;;;;;;0.43;0.43;;;;;22.40;96784.00;;;;5098261;28;20212;-50
2022/08/06 08:57:16;;;;;;;0.57;0.57;;;;;22.50;96778.00;;;;5116622;28;20212;-50
2022/08/06 08:59:43;;;;;;;0.50;0.50;;;22.80;34.60;22.50;96780.00;;;;5116312;28;20229;-49
2022/08/06 09:02:13;;;;;;;0.35;0.35;;;;;22.70;96777.00;;;;5116472;28;20280;-51
2022/08/06 09:04:42;;;;;;;0.60;0.60;;;;;22.80;96787.00;;;;5116373;28;20201;-50
2022/08/06 09:07:10;;;;;;;0.60;0.60;;;23.20;33.20;22.70;96781.00;;;;5116334;28;20341;-49
2022/08/06 09:09:39;;;;;;;0.75;0.75;;;23.10;33.30;23.10;96781.00;;;;5116263;28;20641;-50
2022/08/06 09:12:07;;;;;;;0.70;0.70;;;;;22.80;96785.00;;;;5116185;28;20249;-49
2022/08/06 09:14:34;;;;;;;0.60;0.60;;;;;22.30;96798.00;;;;5116201;28;20281;-48
2022/08/06 09:17:03;;;;;;;0.85;0.80;;;22.80;33.70;22.70;96786.00;;;;5116127;28;20229;-48
2022/08/06 09:19:30;;;;;;;0.55;0.55;;;;;22.80;96802.00;;;;5116344;28;20275;-49
2022/08/06 09:21:57;;;;;;;0.40;0.40;;;23.20;33.40;23.10;96792.00;;;;5116124;28;20214;-52
2022/08/06 09:24:26;;;;;;;0.73;0.65;;;23.30;33.90;23.10;96797.00;;;;5116312;28;20270;-50
2022/08/06 09:27:07;;;;;;;0.47;0.47;;;;;23.30;96802.00;;;;5116040;28;20661;-52
2022/08/06 09:29:34;;;;;;;0.60;0.60;;;23.60;32.20;23.30;96800.00;;;;5115689;28;20316;-49
2022/08/06 09:32:04;;;;;;;0.45;0.45;;;23.60;33.20;23.30;96795.00;;;;5115793;28;20624;-50
2022/08/06 09:34:37;;;;;;;3.20;1.75;;;23.60;33.30;23.10;96795.00;;;;5097921;28;20249;-51
2022/08/06 09:37:05;;;;;;;0.35;0.35;;;23.50;32.10;23.10;96804.00;;;;5115974;28;20571;-49
2022/08/06 09:39:37;;;;;;;0.60;0.60;;;23.50;33.00;23.10;96806.00;;;;5115797;28;20316;-49
2022/08/06 09:42:04;;;;;;;0.50;0.50;;;23.50;32.40;23.10;96805.00;;;;5115752;28;20275;-49
2022/08/06 09:44:30;;;;;;;0.50;0.50;;;23.50;32.60;22.70;96803.00;;;;5097894;28;20305;-49
2022/08/06 09:46:59;;;;;;;0.55;0.55;;;23.30;32.30;22.70;96809.00;;;;5115578;28;20198;-49
2022/08/06 09:49:27;;;;;;;0.40;0.40;;;23.10;32.90;22.50;96809.00;;;;5115593;28;20194;-49
2022/08/06 09:52:12;;;;;;;0.45;0.45;;;23.00;32.90;22.90;96809.00;;;;5115511;28;20282;-49
2022/08/06 09:54:40;;;;;;;0.70;0.70;;;23.20;33.00;23.20;96809.00;;;;5115643;28;20277;-62
2022/08/06 09:57:07;;;;;;;0.60;0.60;;;23.40;32.40;23.00;96806.00;;;;5097685;28;20540;-49
2022/08/06 09:59:44;;;;;;;0.88;0.82;;;23.40;31.50;23.00;96811.00;;;;5115467;28;20312;-49
2022/08/06 10:02:15;;;;;;;0.65;0.65;;;23.40;31.80;22.90;96813.00;;;;5115428;28;20205;-49
2022/08/06 10:04:42;;;;;;;0.45;0.45;;;23.30;31.50;22.80;96808.00;;;;5115265;28;20205;-49
2022/08/06 10:07:11;;;;;;;0.50;0.50;;;23.20;31.90;23.30;96789.00;;;;5114281;28;20194;-50
2022/08/06 10:09:52;;;;;;;0.70;0.70;;;23.50;31.90;23.70;96810.00;;;;5115219;28;20360;-49
2022/08/06 10:12:24;;;;;;;0.32;0.32;;;23.80;31.70;23.60;96801.00;;;;5115308;28;20202;-49
2022/08/06 10:14:53;;;;;;;0.70;0.70;;;23.90;30.50;23.60;96802.00;;;;5097158;28;20640;-49
2022/08/06 10:17:21;;;;;;;0.70;0.70;;;24.00;30.70;24.30;96802.00;;;;5115206;28;20277;-50
2022/08/06 10:20:05;;;;;;;0.40;0.40;;;24.40;30.60;24.10;96793.00;;;;5115040;28;20300;-48
2022/08/06 10:22:35;;;;;;;0.40;0.40;;;24.30;30.40;24.10;96803.00;;;;5115179;28;20174;-50
2022/08/06 10:25:05;;;;;;;0.70;0.70;;;24.30;29.50;24.10;96811.00;;;;5114987;28;20221;-50
2022/08/06 10:27:34;;;;;;;0.52;0.52;;;24.40;29.70;24.10;96803.00;;;;5115005;28;20190;-50
2022/08/06 10:30:06;;;;;;;0.70;0.70;;;24.40;29.00;23.90;96801.00;;;;5114939;28;20656;-49
2022/08/06 10:32:37;;;;;;;0.50;0.50;;;;;23.50;96795.00;;;;5115096;28;20190;-49
2022/08/06 10:35:06;;;;;;;1.73;0.93;;;23.90;29.50;23.60;96800.00;;;;5096896;28;20226;-49
2022/08/06 10:37:37;;;;;;;0.60;0.60;;;23.90;30.20;24.00;96791.00;;;;5114884;28;20194;-49
2022/08/06 10:40:09;;;;;;;0.60;0.60;;;24.20;29.10;23.80;96803.00;;;;5114656;28;20229;-48
2022/08/06 10:42:36;;;;;;;0.60;0.60;;;24.20;29.20;23.80;96806.00;;;;5114636;28;20201;-49
2022/08/06 10:45:04;;;;;;;0.70;0.70;;;24.30;29.70;23.80;96798.00;;;;5096637;28;20217;-48
2022/08/06 10:47:34;;;;;;;0.82;0.82;;;24.10;29.40;23.90;96804.00;;;;5114793;28;20202;-50
2022/08/06 10:50:02;;;;;;;0.63;0.63;;;24.20;29.60;23.60;96794.00;;;;5114604;28;20218;-49
2022/08/06 10:52:29;;;;;;;1.15;0.73;;;24.00;29.50;23.60;96795.00;;;;5114652;28;20197;-50
2022/08/06 10:55:00;;;;;;;0.50;0.50;;;24.00;29.90;23.80;96784.00;;;;5114346;28;20262;-49
2022/08/06 10:57:27;;;;;;;0.50;0.50;;;24.10;29.10;24.20;96804.00;;;;5114576;28;20206;-49
2022/08/06 10:59:55;;;;;;;0.30;0.30;;;24.40;29.60;24.50;96793.00;;;;5114440;28;20240;-49
2022/08/06 11:02:36;;;;;;;0.50;0.50;;;24.50;28.90;24.30;96781.00;;;;5114535;28;20252;-50
2022/08/06 11:05:09;;;;;;;0.70;0.70;;;24.70;28.00;24.60;96773.00;;;;5114590;28;20217;-49
2022/08/06 11:08:05;;;;;;;0.50;0.50;;;24.80;28.40;25.10;96781.00;;;;5114572;28;20315;-49
2022/08/06 11:10:51;;;;;;;1.17;1.08;;;25.20;28.30;25.40;96778.00;;;;5114371;28;20214;-50
2022/08/06 11:13:30;;;;;;;0.57;0.57;;;25.40;28.40;25.40;96768.00;;;;5114278;28;20253;-49
2022/08/06 11:15:59;;;;;;;16.17;0.80;;;25.60;26.00;25.70;96774.00;;;;5114238;28;20641;-50
2022/08/06 11:18:29;;;;;;;0.85;0.85;;;25.90;25.90;25.40;96769.00;;;;5113903;28;20249;-50
2022/08/06 11:20:59;;;;;;;0.50;0.50;;;25.80;25.30;25.70;96761.00;;;;5114116;28;20206;-49